KHQM/HQM METAR and TAF weather

Enter ICAO airport designator
Station Type Date Time Source
KHQM METAR 2020/07/14 05:53 UTC NOAA

KHQM 140553Z AUTO 32003KT 10SM CLR 13/11 A3013 RMK AO2 SLP205 T01330111 10189 20133 53003


Station Type Date Time Source
KHQM Decoded METAR 2020/07/14 05:53 UTC NOAA

HOQUIAM BOWERMAN AIRPORT, WA, United States (KHQM) 46-58N 123-56W 7M
Jul 14, 2020 - 01:53 AM EDT / 2020.07.14 0553 UTC
Wind: from the NW (320 degrees) at 3 MPH (3 KT):0
Visibility: 10 mile(s):0
Sky conditions: clear
Temperature: 55.9 F (13.3 C)
Dew Point: 52.0 F (11.1 C)
Relative Humidity: 86%
Pressure (altimeter): 30.13 in. Hg (1020 hPa)
Pressure tendency: 0.01 inches (0.3 hPa) higher than three hours ago
ob: KHQM 140553Z AUTO 32003KT 10SM CLR 13/11 A3013 RMK AO2 SLP205 T01330111 10189 20133 53003
cycle: 6

Station Type Date Time Source
KHQM TAF 2020/07/14 06:39 UTC NOAA

TAF KHQM 140536Z 1406/1506 VRB03KT P6SM SKC
FM141300 VRB03KT P6SM OVC008
FM141600 27010KT P6SM SKC

Example: see airport list